sensor_id;sensor_type;location;lat;lon;timestamp;P1;durP1;ratioP1;P2;durP2;ratioP2
4835;SDS011;66719;51.226;6.902;2024-01-16T00:02:06;18.90;;;8.80;;
4835;SDS011;66719;51.226;6.902;2024-01-16T00:04:36;16.63;;;8.30;;
4835;SDS011;66719;51.226;6.902;2024-01-16T00:07:03;17.03;;;7.57;;
4835;SDS011;66719;51.226;6.902;2024-01-16T00:09:32;17.67;;;7.70;;
4835;SDS011;66719;51.226;6.902;2024-01-16T00:12:02;17.87;;;8.70;;
4835;SDS011;66719;51.226;6.902;2024-01-16T00:14:30;17.47;;;7.90;;
4835;SDS011;66719;51.226;6.902;2024-01-16T00:16:57;14.43;;;6.80;;
4835;SDS011;66719;51.226;6.902;2024-01-16T00:19:23;15.10;;;6.10;;
4835;SDS011;66719;51.226;6.902;2024-01-16T00:21:50;15.43;;;6.37;;
4835;SDS011;66719;51.226;6.902;2024-01-16T00:24:17;14.83;;;6.17;;
4835;SDS011;66719;51.226;6.902;2024-01-16T00:26:44;15.50;;;5.50;;
4835;SDS011;66719;51.226;6.902;2024-01-16T00:29:11;12.73;;;5.53;;
4835;SDS011;66719;51.226;6.902;2024-01-16T00:31:39;14.43;;;5.90;;
4835;SDS011;66719;51.226;6.902;2024-01-16T00:34:05;13.77;;;6.17;;
4835;SDS011;66719;51.226;6.902;2024-01-16T00:36:32;12.47;;;5.60;;
4835;SDS011;66719;51.226;6.902;2024-01-16T00:38:59;11.90;;;5.90;;
4835;SDS011;66719;51.226;6.902;2024-01-16T00:41:25;15.63;;;6.57;;
4835;SDS011;66719;51.226;6.902;2024-01-16T00:43:53;13.17;;;6.57;;
4835;SDS011;66719;51.226;6.902;2024-01-16T00:46:19;17.27;;;6.00;;
4835;SDS011;66719;51.226;6.902;2024-01-16T00:48:46;12.73;;;6.50;;
4835;SDS011;66719;51.226;6.902;2024-01-16T00:51:14;14.07;;;6.00;;
4835;SDS011;66719;51.226;6.902;2024-01-16T00:53:41;16.13;;;7.10;;
4835;SDS011;66719;51.226;6.902;2024-01-16T00:56:09;17.53;;;6.87;;
4835;SDS011;66719;51.226;6.902;2024-01-16T00:58:36;15.50;;;7.07;;
4835;SDS011;66719;51.226;6.902;2024-01-16T01:01:02;14.43;;;7.30;;
4835;SDS011;66719;51.226;6.902;2024-01-16T01:03:29;18.50;;;6.93;;
4835;SDS011;66719;51.226;6.902;2024-01-16T01:05:56;16.20;;;7.43;;
4835;SDS011;66719;51.226;6.902;2024-01-16T01:08:23;15.10;;;7.50;;
4835;SDS011;66719;51.226;6.902;2024-01-16T01:10:50;14.65;;;8.35;;
4835;SDS011;66719;51.226;6.902;2024-01-16T01:13:16;15.37;;;8.10;;
4835;SDS011;66719;51.226;6.902;2024-01-16T01:15:43;15.80;;;7.90;;
4835;SDS011;66719;51.226;6.902;2024-01-16T01:18:09;18.57;;;8.10;;
4835;SDS011;66719;51.226;6.902;2024-01-16T01:20:36;18.83;;;8.50;;
4835;SDS011;66719;51.226;6.902;2024-01-16T01:23:03;20.33;;;9.77;;
4835;SDS011;66719;51.226;6.902;2024-01-16T01:25:30;16.80;;;8.87;;
4835;SDS011;66719;51.226;6.902;2024-01-16T01:27:56;18.10;;;9.60;;
4835;SDS011;66719;51.226;6.902;2024-01-16T01:30:23;17.53;;;10.17;;
4835;SDS011;66719;51.226;6.902;2024-01-16T01:32:49;21.87;;;10.67;;
4835;SDS011;66719;51.226;6.902;2024-01-16T01:35:16;23.57;;;11.73;;
4835;SDS011;66719;51.226;6.902;2024-01-16T01:37:46;22.07;;;11.60;;
4835;SDS011;66719;51.226;6.902;2024-01-16T01:40:12;29.13;;;12.83;;
4835;SDS011;66719;51.226;6.902;2024-01-16T01:42:41;22.07;;;12.53;;
4835;SDS011;66719;51.226;6.902;2024-01-16T01:45:09;25.27;;;12.47;;
4835;SDS011;66719;51.226;6.902;2024-01-16T01:47:36;25.73;;;13.23;;
4835;SDS011;66719;51.226;6.902;2024-01-16T01:50:09;24.00;;;13.27;;
4835;SDS011;66719;51.226;6.902;2024-01-16T01:52:37;24.83;;;12.07;;
4835;SDS011;66719;51.226;6.902;2024-01-16T01:55:06;19.77;;;12.33;;
4835;SDS011;66719;51.226;6.902;2024-01-16T01:57:37;24.57;;;14.00;;
4835;SDS011;66719;51.226;6.902;2024-01-16T02:00:04;22.73;;;13.30;;
4835;SDS011;66719;51.226;6.902;2024-01-16T02:02:32;30.67;;;12.87;;
4835;SDS011;66719;51.226;6.902;2024-01-16T02:04:59;24.13;;;12.53;;
4835;SDS011;66719;51.226;6.902;2024-01-16T02:07:26;25.03;;;12.37;;
4835;SDS011;66719;51.226;6.902;2024-01-16T02:09:54;26.17;;;11.50;;
4835;SDS011;66719;51.226;6.902;2024-01-16T02:12:21;24.07;;;10.87;;
4835;SDS011;66719;51.226;6.902;2024-01-16T02:14:50;21.13;;;11.33;;
4835;SDS011;66719;51.226;6.902;2024-01-16T02:17:17;20.97;;;10.50;;
4835;SDS011;66719;51.226;6.902;2024-01-16T02:19:44;16.40;;;10.33;;
4835;SDS011;66719;51.226;6.902;2024-01-16T02:22:11;21.90;;;10.80;;
4835;SDS011;66719;51.226;6.902;2024-01-16T02:24:46;24.23;;;10.97;;
4835;SDS011;66719;51.226;6.902;2024-01-16T02:27:12;24.83;;;10.90;;
4835;SDS011;66719;51.226;6.902;2024-01-16T02:29:42;19.83;;;10.30;;
4835;SDS011;66719;51.226;6.902;2024-01-16T02:32:12;19.70;;;10.30;;
4835;SDS011;66719;51.226;6.902;2024-01-16T02:34:40;19.77;;;11.00;;
4835;SDS011;66719;51.226;6.902;2024-01-16T02:37:07;19.80;;;9.73;;
4835;SDS011;66719;51.226;6.902;2024-01-16T02:39:34;20.90;;;10.93;;
4835;SDS011;66719;51.226;6.902;2024-01-16T02:42:01;23.93;;;10.67;;
4835;SDS011;66719;51.226;6.902;2024-01-16T02:44:27;25.83;;;11.17;;
4835;SDS011;66719;51.226;6.902;2024-01-16T02:46:54;30.60;;;12.17;;
4835;SDS011;66719;51.226;6.902;2024-01-16T02:49:21;16.83;;;10.40;;
4835;SDS011;66719;51.226;6.902;2024-01-16T02:51:47;20.53;;;11.77;;
4835;SDS011;66719;51.226;6.902;2024-01-16T02:54:15;23.90;;;12.13;;
4835;SDS011;66719;51.226;6.902;2024-01-16T02:56:41;21.53;;;10.77;;
4835;SDS011;66719;51.226;6.902;2024-01-16T02:59:08;26.30;;;11.10;;
4835;SDS011;66719;51.226;6.902;2024-01-16T03:01:35;20.17;;;12.27;;
4835;SDS011;66719;51.226;6.902;2024-01-16T03:04:02;24.70;;;11.60;;
4835;SDS011;66719;51.226;6.902;2024-01-16T03:06:29;27.40;;;11.50;;
4835;SDS011;66719;51.226;6.902;2024-01-16T03:08:56;18.23;;;11.47;;
4835;SDS011;66719;51.226;6.902;2024-01-16T03:11:23;19.77;;;10.33;;
4835;SDS011;66719;51.226;6.902;2024-01-16T03:13:49;21.27;;;11.77;;
4835;SDS011;66719;51.226;6.902;2024-01-16T03:16:18;20.73;;;10.90;;
4835;SDS011;66719;51.226;6.902;2024-01-16T03:18:45;30.10;;;11.97;;
4835;SDS011;66719;51.226;6.902;2024-01-16T03:21:13;22.33;;;10.40;;
4835;SDS011;66719;51.226;6.902;2024-01-16T03:23:40;26.23;;;10.70;;
4835;SDS011;66719;51.226;6.902;2024-01-16T03:26:06;18.97;;;10.00;;
4835;SDS011;66719;51.226;6.902;2024-01-16T03:28:33;32.80;;;10.83;;
4835;SDS011;66719;51.226;6.902;2024-01-16T03:31:00;21.53;;;10.70;;
4835;SDS011;66719;51.226;6.902;2024-01-16T03:33:27;22.73;;;10.17;;
4835;SDS011;66719;51.226;6.902;2024-01-16T03:35:53;21.67;;;9.60;;
4835;SDS011;66719;51.226;6.902;2024-01-16T03:38:20;21.57;;;10.57;;
4835;SDS011;66719;51.226;6.902;2024-01-16T03:40:47;17.00;;;9.30;;
4835;SDS011;66719;51.226;6.902;2024-01-16T03:43:13;18.80;;;9.47;;
4835;SDS011;66719;51.226;6.902;2024-01-16T03:45:40;27.27;;;10.43;;
4835;SDS011;66719;51.226;6.902;2024-01-16T03:48:06;19.33;;;9.40;;
4835;SDS011;66719;51.226;6.902;2024-01-16T03:50:33;18.37;;;9.00;;
4835;SDS011;66719;51.226;6.902;2024-01-16T03:53:02;18.97;;;9.37;;
4835;SDS011;66719;51.226;6.902;2024-01-16T03:55:32;17.23;;;9.60;;
4835;SDS011;66719;51.226;6.902;2024-01-16T03:57:58;15.23;;;8.30;;
4835;SDS011;66719;51.226;6.902;2024-01-16T04:00:25;17.97;;;8.83;;
4835;SDS011;66719;51.226;6.902;2024-01-16T04:02:51;21.50;;;9.00;;
4835;SDS011;66719;51.226;6.902;2024-01-16T04:05:18;16.00;;;8.23;;
4835;SDS011;66719;51.226;6.902;2024-01-16T04:07:45;17.13;;;8.50;;
4835;SDS011;66719;51.226;6.902;2024-01-16T04:10:12;17.73;;;8.30;;
4835;SDS011;66719;51.226;6.902;2024-01-16T04:12:38;14.70;;;7.33;;
4835;SDS011;66719;51.226;6.902;2024-01-16T04:15:05;20.23;;;8.03;;
4835;SDS011;66719;51.226;6.902;2024-01-16T04:17:32;14.53;;;7.80;;
4835;SDS011;66719;51.226;6.902;2024-01-16T04:19:59;14.77;;;7.27;;
4835;SDS011;66719;51.226;6.902;2024-01-16T04:22:26;14.27;;;7.60;;
4835;SDS011;66719;51.226;6.902;2024-01-16T04:24:52;21.10;;;8.50;;
4835;SDS011;66719;51.226;6.902;2024-01-16T04:27:19;18.00;;;7.87;;
4835;SDS011;66719;51.226;6.902;2024-01-16T04:29:46;18.30;;;7.57;;
4835;SDS011;66719;51.226;6.902;2024-01-16T04:32:13;15.10;;;7.17;;
4835;SDS011;66719;51.226;6.902;2024-01-16T04:34:39;17.20;;;7.77;;
4835;SDS011;66719;51.226;6.902;2024-01-16T04:37:06;15.17;;;6.50;;
4835;SDS011;66719;51.226;6.902;2024-01-16T04:39:32;16.00;;;6.63;;
4835;SDS011;66719;51.226;6.902;2024-01-16T04:41:59;15.30;;;8.10;;
4835;SDS011;66719;51.226;6.902;2024-01-16T04:44:25;15.10;;;6.60;;
4835;SDS011;66719;51.226;6.902;2024-01-16T04:46:52;31.80;;;8.10;;
4835;SDS011;66719;51.226;6.902;2024-01-16T04:49:19;15.73;;;6.73;;
4835;SDS011;66719;51.226;6.902;2024-01-16T04:51:45;12.93;;;6.70;;
4835;SDS011;66719;51.226;6.902;2024-01-16T04:54:13;19.80;;;7.37;;
4835;SDS011;66719;51.226;6.902;2024-01-16T04:56:39;16.00;;;7.00;;
4835;SDS011;66719;51.226;6.902;2024-01-16T04:59:06;16.63;;;6.57;;
4835;SDS011;66719;51.226;6.902;2024-01-16T05:01:33;16.23;;;7.30;;
4835;SDS011;66719;51.226;6.902;2024-01-16T05:03:59;14.73;;;6.83;;
4835;SDS011;66719;51.226;6.902;2024-01-16T05:06:26;14.67;;;6.80;;
4835;SDS011;66719;51.226;6.902;2024-01-16T05:08:53;15.10;;;6.80;;
4835;SDS011;66719;51.226;6.902;2024-01-16T05:11:19;19.13;;;8.20;;
4835;SDS011;66719;51.226;6.902;2024-01-16T05:13:46;17.53;;;7.53;;
4835;SDS011;66719;51.226;6.902;2024-01-16T05:16:13;16.80;;;8.40;;
4835;SDS011;66719;51.226;6.902;2024-01-16T05:18:42;18.77;;;8.30;;
4835;SDS011;66719;51.226;6.902;2024-01-16T05:21:09;17.30;;;8.27;;
4835;SDS011;66719;51.226;6.902;2024-01-16T05:23:36;20.17;;;7.90;;
4835;SDS011;66719;51.226;6.902;2024-01-16T05:26:03;21.10;;;8.90;;
4835;SDS011;66719;51.226;6.902;2024-01-16T05:28:30;16.90;;;8.40;;
4835;SDS011;66719;51.226;6.902;2024-01-16T05:30:57;18.40;;;9.30;;
4835;SDS011;66719;51.226;6.902;2024-01-16T05:33:24;24.37;;;9.43;;
4835;SDS011;66719;51.226;6.902;2024-01-16T05:35:50;20.57;;;9.53;;
4835;SDS011;66719;51.226;6.902;2024-01-16T05:38:17;19.80;;;8.97;;
4835;SDS011;66719;51.226;6.902;2024-01-16T05:40:44;17.87;;;8.47;;
4835;SDS011;66719;51.226;6.902;2024-01-16T05:43:10;21.67;;;9.20;;
4835;SDS011;66719;51.226;6.902;2024-01-16T05:45:37;22.57;;;9.67;;
4835;SDS011;66719;51.226;6.902;2024-01-16T05:48:03;19.43;;;7.20;;
4835;SDS011;66719;51.226;6.902;2024-01-16T05:50:34;15.23;;;7.63;;
4835;SDS011;66719;51.226;6.902;2024-01-16T05:53:01;21.83;;;7.47;;
4835;SDS011;66719;51.226;6.902;2024-01-16T05:55:28;22.77;;;9.23;;
4835;SDS011;66719;51.226;6.902;2024-01-16T05:57:58;21.17;;;7.97;;
4835;SDS011;66719;51.226;6.902;2024-01-16T06:00:25;27.30;;;8.53;;
4835;SDS011;66719;51.226;6.902;2024-01-16T06:02:52;27.87;;;8.10;;
4835;SDS011;66719;51.226;6.902;2024-01-16T06:05:19;21.27;;;8.00;;
4835;SDS011;66719;51.226;6.902;2024-01-16T06:07:45;21.47;;;7.60;;
4835;SDS011;66719;51.226;6.902;2024-01-16T06:10:12;19.60;;;6.97;;
4835;SDS011;66719;51.226;6.902;2024-01-16T06:12:42;19.90;;;7.13;;
4835;SDS011;66719;51.226;6.902;2024-01-16T06:15:09;23.50;;;7.50;;
4835;SDS011;66719;51.226;6.902;2024-01-16T06:17:37;19.83;;;6.73;;
4835;SDS011;66719;51.226;6.902;2024-01-16T06:20:04;25.73;;;7.70;;
4835;SDS011;66719;51.226;6.902;2024-01-16T06:22:33;24.07;;;6.87;;
4835;SDS011;66719;51.226;6.902;2024-01-16T06:24:59;27.03;;;7.13;;
4835;SDS011;66719;51.226;6.902;2024-01-16T06:27:26;19.97;;;6.23;;
4835;SDS011;66719;51.226;6.902;2024-01-16T06:29:52;19.77;;;7.47;;
4835;SDS011;66719;51.226;6.902;2024-01-16T06:32:19;16.33;;;6.70;;
4835;SDS011;66719;51.226;6.902;2024-01-16T06:34:46;18.90;;;6.67;;
4835;SDS011;66719;51.226;6.902;2024-01-16T06:37:12;21.37;;;6.70;;
4835;SDS011;66719;51.226;6.902;2024-01-16T06:39:39;17.13;;;6.80;;
4835;SDS011;66719;51.226;6.902;2024-01-16T06:42:05;20.63;;;5.70;;
4835;SDS011;66719;51.226;6.902;2024-01-16T06:44:36;23.37;;;6.50;;
4835;SDS011;66719;51.226;6.902;2024-01-16T06:47:03;19.70;;;6.70;;
4835;SDS011;66719;51.226;6.902;2024-01-16T06:49:29;30.27;;;6.80;;
4835;SDS011;66719;51.226;6.902;2024-01-16T06:51:56;25.43;;;6.50;;
4835;SDS011;66719;51.226;6.902;2024-01-16T06:54:23;16.27;;;6.10;;
4835;SDS011;66719;51.226;6.902;2024-01-16T06:56:50;25.90;;;5.80;;
4835;SDS011;66719;51.226;6.902;2024-01-16T06:59:17;19.57;;;6.10;;
4835;SDS011;66719;51.226;6.902;2024-01-16T07:01:46;24.50;;;5.40;;
4835;SDS011;66719;51.226;6.902;2024-01-16T07:04:12;16.50;;;4.60;;
4835;SDS011;66719;51.226;6.902;2024-01-16T07:06:41;14.97;;;4.70;;
4835;SDS011;66719;51.226;6.902;2024-01-16T07:09:07;22.37;;;5.70;;
4835;SDS011;66719;51.226;6.902;2024-01-16T07:11:37;19.33;;;5.87;;
4835;SDS011;66719;51.226;6.902;2024-01-16T07:14:06;18.67;;;4.67;;
4835;SDS011;66719;51.226;6.902;2024-01-16T07:16:33;19.70;;;5.10;;
4835;SDS011;66719;51.226;6.902;2024-01-16T07:18:59;20.00;;;4.90;;
4835;SDS011;66719;51.226;6.902;2024-01-16T07:21:26;22.73;;;4.90;;
4835;SDS011;66719;51.226;6.902;2024-01-16T07:23:54;23.70;;;5.00;;
4835;SDS011;66719;51.226;6.902;2024-01-16T07:26:21;15.37;;;5.10;;
4835;SDS011;66719;51.226;6.902;2024-01-16T07:28:49;17.20;;;4.90;;
4835;SDS011;66719;51.226;6.902;2024-01-16T07:31:16;15.83;;;4.87;;
4835;SDS011;66719;51.226;6.902;2024-01-16T07:33:42;21.00;;;4.43;;
4835;SDS011;66719;51.226;6.902;2024-01-16T07:36:10;21.13;;;5.80;;
4835;SDS011;66719;51.226;6.902;2024-01-16T07:38:37;16.53;;;5.40;;
4835;SDS011;66719;51.226;6.902;2024-01-16T07:41:04;16.93;;;4.50;;
4835;SDS011;66719;51.226;6.902;2024-01-16T07:43:31;18.63;;;5.10;;
4835;SDS011;66719;51.226;6.902;2024-01-16T07:45:58;15.80;;;4.10;;
4835;SDS011;66719;51.226;6.902;2024-01-16T07:48:25;17.90;;;4.53;;
4835;SDS011;66719;51.226;6.902;2024-01-16T07:50:51;31.80;;;6.00;;
4835;SDS011;66719;51.226;6.902;2024-01-16T07:53:18;17.33;;;4.17;;
4835;SDS011;66719;51.226;6.902;2024-01-16T07:55:45;16.63;;;4.10;;
4835;SDS011;66719;51.226;6.902;2024-01-16T07:58:12;14.07;;;4.37;;
4835;SDS011;66719;51.226;6.902;2024-01-16T08:00:39;14.13;;;5.27;;
4835;SDS011;66719;51.226;6.902;2024-01-16T08:03:07;23.47;;;4.70;;
4835;SDS011;66719;51.226;6.902;2024-01-16T08:05:37;15.90;;;4.57;;
4835;SDS011;66719;51.226;6.902;2024-01-16T08:08:04;16.40;;;3.93;;
4835;SDS011;66719;51.226;6.902;2024-01-16T08:10:34;16.97;;;4.00;;
4835;SDS011;66719;51.226;6.902;2024-01-16T08:13:00;18.93;;;3.90;;
4835;SDS011;66719;51.226;6.902;2024-01-16T08:15:27;16.53;;;4.37;;
4835;SDS011;66719;51.226;6.902;2024-01-16T08:17:53;17.70;;;5.00;;
4835;SDS011;66719;51.226;6.902;2024-01-16T08:20:20;19.83;;;3.83;;
4835;SDS011;66719;51.226;6.902;2024-01-16T08:22:47;12.63;;;3.53;;
4835;SDS011;66719;51.226;6.902;2024-01-16T08:25:16;12.43;;;3.80;;
4835;SDS011;66719;51.226;6.902;2024-01-16T08:27:42;15.07;;;3.77;;
4835;SDS011;66719;51.226;6.902;2024-01-16T08:30:10;17.57;;;3.73;;
4835;SDS011;66719;51.226;6.902;2024-01-16T08:32:38;18.17;;;3.70;;
4835;SDS011;66719;51.226;6.902;2024-01-16T08:35:05;22.00;;;4.23;;
4835;SDS011;66719;51.226;6.902;2024-01-16T08:37:35;18.17;;;3.90;;
4835;SDS011;66719;51.226;6.902;2024-01-16T08:40:01;16.83;;;3.93;;
4835;SDS011;66719;51.226;6.902;2024-01-16T08:42:30;19.87;;;4.17;;
4835;SDS011;66719;51.226;6.902;2024-01-16T08:44:57;13.37;;;3.60;;
4835;SDS011;66719;51.226;6.902;2024-01-16T08:47:24;15.47;;;3.90;;
4835;SDS011;66719;51.226;6.902;2024-01-16T08:49:50;17.23;;;4.87;;
4835;SDS011;66719;51.226;6.902;2024-01-16T08:52:17;21.27;;;4.67;;
4835;SDS011;66719;51.226;6.902;2024-01-16T08:54:44;15.60;;;4.57;;
4835;SDS011;66719;51.226;6.902;2024-01-16T08:57:10;18.53;;;4.40;;
4835;SDS011;66719;51.226;6.902;2024-01-16T08:59:43;15.53;;;3.80;;
4835;SDS011;66719;51.226;6.902;2024-01-16T09:02:09;17.17;;;4.10;;
4835;SDS011;66719;51.226;6.902;2024-01-16T09:04:36;15.97;;;3.47;;
4835;SDS011;66719;51.226;6.902;2024-01-16T09:07:04;16.70;;;4.37;;
4835;SDS011;66719;51.226;6.902;2024-01-16T09:09:31;26.83;;;4.13;;
4835;SDS011;66719;51.226;6.902;2024-01-16T09:11:58;16.73;;;4.53;;
4835;SDS011;66719;51.226;6.902;2024-01-16T09:14:25;11.33;;;3.20;;
4835;SDS011;66719;51.226;6.902;2024-01-16T09:16:52;19.80;;;4.87;;
4835;SDS011;66719;51.226;6.902;2024-01-16T09:19:20;17.03;;;4.03;;
4835;SDS011;66719;51.226;6.902;2024-01-16T09:21:47;18.20;;;4.40;;
4835;SDS011;66719;51.226;6.902;2024-01-16T09:24:14;16.33;;;4.67;;
4835;SDS011;66719;51.226;6.902;2024-01-16T09:26:41;17.73;;;3.80;;
4835;SDS011;66719;51.226;6.902;2024-01-16T09:29:09;17.87;;;4.87;;
4835;SDS011;66719;51.226;6.902;2024-01-16T09:31:36;23.00;;;4.77;;
4835;SDS011;66719;51.226;6.902;2024-01-16T09:34:03;18.10;;;5.37;;
4835;SDS011;66719;51.226;6.902;2024-01-16T09:36:35;15.87;;;3.80;;
4835;SDS011;66719;51.226;6.902;2024-01-16T09:39:06;16.90;;;4.37;;
4835;SDS011;66719;51.226;6.902;2024-01-16T09:41:45;14.40;;;4.07;;
4835;SDS011;66719;51.226;6.902;2024-01-16T09:44:12;14.07;;;3.77;;
4835;SDS011;66719;51.226;6.902;2024-01-16T09:46:38;12.83;;;3.90;;
4835;SDS011;66719;51.226;6.902;2024-01-16T09:49:09;15.37;;;4.00;;
4835;SDS011;66719;51.226;6.902;2024-01-16T09:51:37;23.17;;;4.43;;
4835;SDS011;66719;51.226;6.902;2024-01-16T09:54:05;18.37;;;3.57;;
4835;SDS011;66719;51.226;6.902;2024-01-16T09:56:35;15.60;;;5.07;;
4835;SDS011;66719;51.226;6.902;2024-01-16T09:59:08;19.17;;;4.60;;
4835;SDS011;66719;51.226;6.902;2024-01-16T10:01:36;13.73;;;3.70;;
4835;SDS011;66719;51.226;6.902;2024-01-16T10:04:04;19.00;;;4.07;;
4835;SDS011;66719;51.226;6.902;2024-01-16T10:06:31;21.17;;;5.23;;
4835;SDS011;66719;51.226;6.902;2024-01-16T10:09:00;18.33;;;4.70;;
4835;SDS011;66719;51.226;6.902;2024-01-16T10:11:26;16.33;;;4.43;;
4835;SDS011;66719;51.226;6.902;2024-01-16T10:13:55;16.03;;;4.20;;
4835;SDS011;66719;51.226;6.902;2024-01-16T10:16:22;20.63;;;5.00;;
4835;SDS011;66719;51.226;6.902;2024-01-16T10:18:52;15.17;;;4.03;;
4835;SDS011;66719;51.226;6.902;2024-01-16T10:21:31;14.67;;;4.27;;
4835;SDS011;66719;51.226;6.902;2024-01-16T10:24:10;18.10;;;4.30;;
4835;SDS011;66719;51.226;6.902;2024-01-16T10:26:37;18.20;;;4.67;;
4835;SDS011;66719;51.226;6.902;2024-01-16T10:29:04;19.57;;;4.30;;
4835;SDS011;66719;51.226;6.902;2024-01-16T10:31:34;22.47;;;4.70;;
4835;SDS011;66719;51.226;6.902;2024-01-16T10:34:01;20.20;;;4.40;;
4835;SDS011;66719;51.226;6.902;2024-01-16T10:36:30;16.73;;;4.10;;
4835;SDS011;66719;51.226;6.902;2024-01-16T10:39:02;18.37;;;4.20;;
4835;SDS011;66719;51.226;6.902;2024-01-16T10:41:29;28.93;;;4.50;;
4835;SDS011;66719;51.226;6.902;2024-01-16T10:44:06;14.57;;;3.63;;
4835;SDS011;66719;51.226;6.902;2024-01-16T10:46:34;17.70;;;4.60;;
4835;SDS011;66719;51.226;6.902;2024-01-16T10:49:02;17.63;;;4.60;;
4835;SDS011;66719;51.226;6.902;2024-01-16T10:51:30;28.10;;;4.50;;
4835;SDS011;66719;51.226;6.902;2024-01-16T10:53:58;16.33;;;4.80;;
4835;SDS011;66719;51.226;6.902;2024-01-16T10:56:27;16.50;;;3.60;;
4835;SDS011;66719;51.226;6.902;2024-01-16T10:59:09;15.40;;;4.90;;
4835;SDS011;66719;51.226;6.902;2024-01-16T11:01:43;18.40;;;4.00;;
4835;SDS011;66719;51.226;6.902;2024-01-16T11:04:12;19.67;;;4.07;;
4835;SDS011;66719;51.226;6.902;2024-01-16T11:06:41;20.40;;;3.97;;
4835;SDS011;66719;51.226;6.902;2024-01-16T11:09:08;18.23;;;5.03;;
4835;SDS011;66719;51.226;6.902;2024-01-16T11:11:35;19.00;;;3.87;;
4835;SDS011;66719;51.226;6.902;2024-01-16T11:14:04;13.63;;;3.83;;
4835;SDS011;66719;51.226;6.902;2024-01-16T11:16:32;14.77;;;3.93;;
4835;SDS011;66719;51.226;6.902;2024-01-16T11:18:59;18.10;;;4.30;;
4835;SDS011;66719;51.226;6.902;2024-01-16T11:21:46;13.80;;;4.30;;
4835;SDS011;66719;51.226;6.902;2024-01-16T11:24:15;28.13;;;5.27;;
4835;SDS011;66719;51.226;6.902;2024-01-16T11:26:42;19.83;;;4.43;;
4835;SDS011;66719;51.226;6.902;2024-01-16T11:31:55;17.90;;;4.37;;
4835;SDS011;66719;51.226;6.902;2024-01-16T11:34:52;15.20;;;4.30;;
4835;SDS011;66719;51.226;6.902;2024-01-16T11:37:25;15.23;;;4.60;;
4835;SDS011;66719;51.226;6.902;2024-01-16T11:42:47;19.97;;;5.00;;
4835;SDS011;66719;51.226;6.902;2024-01-16T11:50:39;15.63;;;5.30;;
4835;SDS011;66719;51.226;6.902;2024-01-16T11:53:06;14.67;;;4.53;;
4835;SDS011;66719;51.226;6.902;2024-01-16T11:55:57;18.47;;;4.93;;
4835;SDS011;66719;51.226;6.902;2024-01-16T12:01:45;16.70;;;4.70;;
4835;SDS011;66719;51.226;6.902;2024-01-16T12:04:16;20.40;;;4.50;;
4835;SDS011;66719;51.226;6.902;2024-01-16T12:06:56;18.70;;;4.33;;
4835;SDS011;66719;51.226;6.902;2024-01-16T12:09:27;20.23;;;4.70;;
4835;SDS011;66719;51.226;6.902;2024-01-16T12:11:58;18.67;;;3.90;;
4835;SDS011;66719;51.226;6.902;2024-01-16T12:14:29;21.03;;;4.70;;
4835;SDS011;66719;51.226;6.902;2024-01-16T12:17:12;18.57;;;4.50;;
4835;SDS011;66719;51.226;6.902;2024-01-16T12:19:40;16.50;;;3.93;;
4835;SDS011;66719;51.226;6.902;2024-01-16T12:22:09;17.47;;;4.20;;
4835;SDS011;66719;51.226;6.902;2024-01-16T12:24:37;18.70;;;4.50;;
4835;SDS011;66719;51.226;6.902;2024-01-16T12:27:04;14.77;;;4.50;;
4835;SDS011;66719;51.226;6.902;2024-01-16T12:29:31;17.00;;;3.93;;
4835;SDS011;66719;51.226;6.902;2024-01-16T12:32:05;23.80;;;5.03;;
4835;SDS011;66719;51.226;6.902;2024-01-16T12:34:43;16.50;;;4.40;;
4835;SDS011;66719;51.226;6.902;2024-01-16T12:37:12;22.40;;;5.50;;
4835;SDS011;66719;51.226;6.902;2024-01-16T12:39:39;15.77;;;3.87;;
4835;SDS011;66719;51.226;6.902;2024-01-16T12:42:09;20.00;;;5.13;;
4835;SDS011;66719;51.226;6.902;2024-01-16T12:44:38;16.70;;;4.33;;
4835;SDS011;66719;51.226;6.902;2024-01-16T12:47:04;19.50;;;4.70;;
4835;SDS011;66719;51.226;6.902;2024-01-16T12:49:31;16.03;;;5.07;;
4835;SDS011;66719;51.226;6.902;2024-01-16T12:52:14;18.67;;;4.27;;
4835;SDS011;66719;51.226;6.902;2024-01-16T12:54:41;15.83;;;4.03;;
4835;SDS011;66719;51.226;6.902;2024-01-16T12:57:08;15.23;;;4.00;;
4835;SDS011;66719;51.226;6.902;2024-01-16T12:59:40;13.43;;;4.60;;
4835;SDS011;66719;51.226;6.902;2024-01-16T13:02:06;12.77;;;3.90;;
4835;SDS011;66719;51.226;6.902;2024-01-16T13:04:33;13.63;;;3.97;;
4835;SDS011;66719;51.226;6.902;2024-01-16T13:07:02;15.70;;;3.87;;
4835;SDS011;66719;51.226;6.902;2024-01-16T13:09:30;15.50;;;4.40;;
4835;SDS011;66719;51.226;6.902;2024-01-16T13:11:58;20.30;;;4.10;;
4835;SDS011;66719;51.226;6.902;2024-01-16T13:14:27;17.87;;;4.60;;
4835;SDS011;66719;51.226;6.902;2024-01-16T13:16:54;14.20;;;4.20;;
4835;SDS011;66719;51.226;6.902;2024-01-16T13:19:22;17.23;;;4.33;;
4835;SDS011;66719;51.226;6.902;2024-01-16T13:21:49;18.20;;;4.77;;
4835;SDS011;66719;51.226;6.902;2024-01-16T13:24:16;19.50;;;4.23;;
4835;SDS011;66719;51.226;6.902;2024-01-16T13:26:49;16.67;;;4.73;;
4835;SDS011;66719;51.226;6.902;2024-01-16T13:29:17;14.20;;;4.43;;
4835;SDS011;66719;51.226;6.902;2024-01-16T13:31:43;13.90;;;3.97;;
4835;SDS011;66719;51.226;6.902;2024-01-16T13:34:10;10.80;;;3.90;;
4835;SDS011;66719;51.226;6.902;2024-01-16T13:36:37;21.07;;;4.73;;
4835;SDS011;66719;51.226;6.902;2024-01-16T13:39:24;13.77;;;4.10;;
4835;SDS011;66719;51.226;6.902;2024-01-16T13:41:51;16.37;;;4.37;;
4835;SDS011;66719;51.226;6.902;2024-01-16T13:44:18;19.73;;;5.07;;
4835;SDS011;66719;51.226;6.902;2024-01-16T13:46:45;19.77;;;4.50;;
4835;SDS011;66719;51.226;6.902;2024-01-16T13:49:31;19.03;;;4.80;;
4835;SDS011;66719;51.226;6.902;2024-01-16T13:52:00;21.03;;;4.97;;
4835;SDS011;66719;51.226;6.902;2024-01-16T13:54:26;17.60;;;4.13;;
4835;SDS011;66719;51.226;6.902;2024-01-16T13:56:53;15.53;;;4.80;;
4835;SDS011;66719;51.226;6.902;2024-01-16T13:59:32;20.10;;;5.07;;
4835;SDS011;66719;51.226;6.902;2024-01-16T14:01:59;17.20;;;4.70;;
4835;SDS011;66719;51.226;6.902;2024-01-16T14:04:25;17.50;;;4.83;;
4835;SDS011;66719;51.226;6.902;2024-01-16T14:06:52;18.30;;;5.07;;
4835;SDS011;66719;51.226;6.902;2024-01-16T14:09:37;15.80;;;5.33;;
4835;SDS011;66719;51.226;6.902;2024-01-16T14:12:04;17.40;;;4.33;;
4835;SDS011;66719;51.226;6.902;2024-01-16T14:14:34;21.37;;;5.20;;
4835;SDS011;66719;51.226;6.902;2024-01-16T14:17:01;21.77;;;4.83;;
4835;SDS011;66719;51.226;6.902;2024-01-16T14:19:28;13.10;;;4.70;;
4835;SDS011;66719;51.226;6.902;2024-01-16T14:21:57;19.97;;;5.03;;
4835;SDS011;66719;51.226;6.902;2024-01-16T14:24:24;16.43;;;4.67;;
4835;SDS011;66719;51.226;6.902;2024-01-16T14:26:50;18.03;;;5.30;;
4835;SDS011;66719;51.226;6.902;2024-01-16T14:29:17;20.67;;;4.50;;
4835;SDS011;66719;51.226;6.902;2024-01-16T14:31:45;16.33;;;4.70;;
4835;SDS011;66719;51.226;6.902;2024-01-16T14:34:15;18.23;;;4.10;;
4835;SDS011;66719;51.226;6.902;2024-01-16T14:36:45;17.13;;;4.73;;
4835;SDS011;66719;51.226;6.902;2024-01-16T14:39:13;12.63;;;4.20;;
4835;SDS011;66719;51.226;6.902;2024-01-16T14:41:43;13.43;;;4.30;;
4835;SDS011;66719;51.226;6.902;2024-01-16T14:44:10;16.13;;;4.10;;
4835;SDS011;66719;51.226;6.902;2024-01-16T14:46:37;13.53;;;4.00;;
4835;SDS011;66719;51.226;6.902;2024-01-16T14:49:03;16.67;;;4.60;;
4835;SDS011;66719;51.226;6.902;2024-01-16T14:51:31;22.53;;;4.93;;
4835;SDS011;66719;51.226;6.902;2024-01-16T14:53:57;20.03;;;4.73;;
4835;SDS011;66719;51.226;6.902;2024-01-16T14:56:27;12.97;;;3.40;;
4835;SDS011;66719;51.226;6.902;2024-01-16T14:58:54;17.90;;;5.17;;
4835;SDS011;66719;51.226;6.902;2024-01-16T15:01:21;15.13;;;3.90;;
4835;SDS011;66719;51.226;6.902;2024-01-16T15:03:47;14.53;;;4.70;;
4835;SDS011;66719;51.226;6.902;2024-01-16T15:06:15;13.50;;;3.73;;